Time;durP1;ratioP1;P1;durP2;ratioP2;P2;SDS_P1;SDS_P2;PMS_P1;PMS_P2;Temp;Humidity;BMP_temperature;BMP_pressure;BME280_temperature;BME280_humidity;BME280_pressure;Samples;Min_cycle;Max_cycle;Signal;HPM_P1;HPM_P2
2022/11/01 00:01:44;;;;;;;11.35;3.45;;;16.80;99.90;;;;;;4963127;28;20027;-77
2022/11/01 00:04:10;;;;;;;7.38;3.15;;;16.80;99.90;;;;;;4948777;28;20108;-77
2022/11/01 00:06:35;;;;;;;10.70;3.05;;;16.80;99.90;;;;;;4952012;28;20030;-77
2022/11/01 00:09:01;;;;;;;7.68;3.10;;;16.80;99.90;;;;;;4980623;28;20114;-77
2022/11/01 00:11:27;;;;;;;8.27;3.75;;;16.90;99.90;;;;;;4978955;28;20401;-77
2022/11/01 00:13:52;;;;;;;6.22;2.20;;;16.90;99.90;;;;;;4956566;28;20030;-77
2022/11/01 00:16:18;;;;;;;8.20;3.33;;;16.80;99.90;;;;;;4981180;28;20038;-77
2022/11/01 00:18:44;;;;;;;6.07;2.90;;;16.90;99.90;;;;;;4963151;28;20035;-77
2022/11/01 00:21:10;;;;;;;11.43;2.75;;;16.90;99.90;;;;;;4966927;28;20035;-77
2022/11/01 00:23:36;;;;;;;6.80;3.17;;;17.00;99.90;;;;;;4956416;28;20038;-77
2022/11/01 00:26:02;;;;;;;8.93;3.55;;;16.90;99.90;;;;;;4964994;28;20093;-77
2022/11/01 00:28:27;;;;;;;6.65;3.30;;;17.00;99.90;;;;;;4967633;28;20402;-77
2022/11/01 00:30:53;;;;;;;7.78;3.10;;;17.00;99.90;;;;;;4984462;28;20049;-77
2022/11/01 00:33:19;;;;;;;6.72;2.72;;;16.90;99.90;;;;;;4954101;28;20027;-77
2022/11/01 00:35:47;;;;;;;6.57;3.50;;;16.80;99.90;;;;;;4965868;28;20045;-77
2022/11/01 00:38:14;;;;;;;9.48;3.85;;;16.80;99.90;;;;;;4985649;28;20033;-77
2022/11/01 00:40:40;;;;;;;8.07;3.67;;;16.80;99.90;;;;;;4950368;28;20042;-77
2022/11/01 00:43:06;;;;;;;11.65;3.85;;;16.70;99.90;;;;;;4965730;28;20031;-77
2022/11/01 00:45:31;;;;;;;6.43;3.15;;;16.70;99.90;;;;;;4952608;28;20469;-77
2022/11/01 00:47:57;;;;;;;7.18;3.53;;;16.60;99.90;;;;;;4978993;28;20027;-77
2022/11/01 00:50:22;;;;;;;11.20;3.92;;;16.60;99.90;;;;;;4961829;28;20617;-78
2022/11/01 00:52:48;;;;;;;9.05;4.15;;;16.50;99.90;;;;;;4966791;28;20038;-77
2022/11/01 00:55:13;;;;;;;11.77;3.78;;;16.40;99.90;;;;;;4966919;28;20046;-77
2022/11/01 00:57:39;;;;;;;10.45;4.47;;;16.40;99.90;;;;;;4956262;28;20034;-77
2022/11/01 01:00:05;;;;;;;5.72;3.65;;;16.30;99.90;;;;;;4950998;28;20491;-77
2022/11/01 01:02:30;;;;;;;9.60;3.55;;;16.30;99.90;;;;;;4970336;28;20187;-78
2022/11/01 01:04:56;;;;;;;8.52;5.60;;;16.30;99.90;;;;;;4951863;28;20518;-78
2022/11/01 01:07:21;;;;;;;9.40;3.80;;;16.30;99.90;;;;;;4981352;28;20193;-78
2022/11/01 01:09:47;;;;;;;8.68;3.10;;;16.20;99.90;;;;;;4966453;28;20518;-78
2022/11/01 01:12:12;;;;;;;9.07;4.10;;;16.20;99.90;;;;;;4984251;28;20042;-78
2022/11/01 01:14:38;;;;;;;16.25;3.92;;;16.10;99.90;;;;;;4964522;28;20042;-78
2022/11/01 01:17:04;;;;;;;9.50;3.58;;;16.10;99.90;;;;;;4962939;28;20030;-78
2022/11/01 01:19:29;;;;;;;9.15;4.32;;;16.00;99.90;;;;;;4963207;28;20042;-78
2022/11/01 01:21:55;;;;;;;14.75;5.18;;;16.00;99.90;;;;;;4978403;28;20034;-78
2022/11/01 01:24:21;;;;;;;7.50;3.53;;;15.90;99.90;;;;;;4962123;28;20045;-78
2022/11/01 01:26:46;;;;;;;7.57;3.47;;;15.90;99.90;;;;;;4962425;28;20560;-78
2022/11/01 01:29:12;;;;;;;7.53;3.47;;;15.90;99.90;;;;;;4955328;28;20536;-78
2022/11/01 01:31:37;;;;;;;8.27;3.47;;;15.90;99.90;;;;;;4962628;28;20110;-77
2022/11/01 01:34:03;;;;;;;8.93;3.65;;;15.90;99.90;;;;;;4962015;28;20037;-78
2022/11/01 01:36:29;;;;;;;5.50;3.30;;;15.90;99.90;;;;;;4964385;28;20022;-78
2022/11/01 01:38:54;;;;;;;18.17;3.92;;;15.90;99.90;;;;;;4931929;28;20034;-78
2022/11/01 01:44:41;;;;;;;9.63;4.30;;;15.90;99.90;;;;;;4967582;28;20049;-78
2022/11/01 01:47:08;;;;;;;7.20;3.05;;;15.90;99.90;;;;;;4976759;28;20490;-78
2022/11/01 01:49:33;;;;;;;9.38;3.72;;;15.90;99.90;;;;;;4961455;28;20042;-77
2022/11/01 01:51:59;;;;;;;11.20;3.70;;;15.90;99.90;;;;;;4963153;28;20023;-77
2022/11/01 01:54:24;;;;;;;9.30;4.07;;;15.90;99.90;;;;;;4960495;28;20034;-77
2022/11/01 01:56:50;;;;;;;9.60;4.03;;;15.90;99.90;;;;;;4946192;28;20026;-77
2022/11/01 01:59:15;;;;;;;9.10;4.00;;;15.90;99.90;;;;;;4964428;28;20691;-77
2022/11/01 02:01:41;;;;;;;10.10;4.03;;;15.90;99.90;;;;;;4960371;28;20847;-77
2022/11/01 02:04:29;;;;;;;9.07;3.65;;;15.90;99.90;;;;;;4959619;28;20390;-77
2022/11/01 02:06:55;;;;;;;7.38;4.32;;;16.00;99.90;;;;;;4951382;28;20027;-77
2022/11/01 02:09:21;;;;;;;10.02;3.60;;;16.00;99.90;;;;;;4961535;28;20371;-77
2022/11/01 02:11:46;;;;;;;8.30;4.22;;;16.00;99.90;;;;;;4980892;28;20117;-77
2022/11/01 02:14:12;;;;;;;7.43;3.13;;;16.00;99.90;;;;;;4962704;28;20026;-77
2022/11/01 02:16:42;;;;;;;8.02;4.43;;;16.00;99.90;;;;;;4950459;28;20110;-77
2022/11/01 02:19:45;;;;;;;7.30;3.83;;;16.00;99.90;;;;;;4966579;28;20030;-77
2022/11/01 02:22:24;;;;;;;10.32;4.45;;;16.00;99.90;;;;;;4978184;28;20031;-77
2022/11/01 02:25:17;;;;;;;12.43;3.50;;;16.00;99.90;;;;;;4966522;28;20072;-77
2022/11/01 02:27:51;;;;;;;6.90;3.58;;;16.00;99.90;;;;;;4964337;28;20042;-77
2022/11/01 02:30:20;;;;;;;14.23;4.57;;;16.00;99.90;;;;;;4961290;28;20090;-77
2022/11/01 02:33:01;;;;;;;10.20;3.33;;;16.00;99.90;;;;;;4966465;28;20039;-77
2022/11/01 02:35:48;;;;;;;9.68;3.90;;;16.00;99.90;;;;;;4960827;28;20050;-77
2022/11/01 02:38:35;;;;;;;6.95;3.25;;;16.10;99.90;;;;;;4979289;28;20404;-77
2022/11/01 02:41:19;;;;;;;9.60;3.65;;;16.00;99.90;;;;;;4966335;28;20027;-77
2022/11/01 02:43:49;;;;;;;7.28;3.88;;;16.10;99.90;;;;;;4949238;28;20522;-77
2022/11/01 02:48:59;;;;;;;5.07;3.25;;;16.00;99.90;;;;;;4953824;28;20037;-77
2022/11/01 02:51:25;;;;;;;10.20;3.92;;;16.00;99.90;;;;;;4961219;28;20038;-77
2022/11/01 02:53:50;;;;;;;8.73;3.67;;;16.00;99.90;;;;;;4947480;28;20391;-77
2022/11/01 02:56:16;;;;;;;5.28;3.28;;;15.90;99.90;;;;;;4979414;28;20372;-77
2022/11/01 02:58:42;;;;;;;12.25;4.38;;;15.90;99.90;;;;;;4938045;28;20049;-77
2022/11/01 03:01:14;;;;;;;7.80;3.00;;;15.80;99.90;;;;;;4950359;28;20066;-77
2022/11/01 03:03:40;;;;;;;9.98;4.15;;;15.90;99.90;;;;;;4941105;28;20036;-77
2022/11/01 03:06:07;;;;;;;8.77;3.80;;;15.80;99.90;;;;;;4961664;28;20045;-77
2022/11/01 03:08:53;;;;;;;8.60;3.20;;;15.70;99.90;;;;;;4963994;28;20042;-77
2022/11/01 03:11:23;;;;;;;6.60;3.70;;;15.70;99.90;;;;;;4934235;28;20433;-77
2022/11/01 03:14:06;;;;;;;8.27;3.53;;;15.70;99.90;;;;;;4965392;28;20031;-78
2022/11/01 03:16:35;;;;;;;7.68;3.67;;;15.70;99.90;;;;;;4956399;28;20045;-77
2022/11/01 03:19:28;;;;;;;11.32;3.70;;;15.70;99.90;;;;;;4977554;28;20482;-76
2022/11/01 03:22:01;;;;;;;8.40;3.97;;;15.70;99.90;;;;;;4981152;28;20081;-76
2022/11/01 03:24:47;;;;;;;6.93;3.65;;;15.60;99.90;;;;;;4961724;28;20066;-76
2022/11/01 03:27:37;;;;;;;6.95;3.08;;;15.60;99.90;;;;;;4978821;28;20069;-77
2022/11/01 03:30:10;;;;;;;10.02;3.80;;;15.60;99.90;;;;;;4956408;28;20578;-75
2022/11/01 03:32:42;;;;;;;8.50;3.95;;;15.50;99.90;;;;;;4960657;28;20046;-76
2022/11/01 03:35:10;;;;;;;7.22;3.08;;;15.50;99.90;;;;;;4948623;28;20062;-76
2022/11/01 03:37:35;;;;;;;9.57;3.45;;;15.60;99.90;;;;;;4965757;28;20038;-76
2022/11/01 03:40:02;;;;;;;7.82;3.70;;;15.50;99.90;;;;;;4949182;28;20038;-76
2022/11/01 03:42:27;;;;;;;8.68;3.80;;;15.50;99.90;;;;;;4949142;28;20038;-76
2022/11/01 03:44:57;;;;;;;8.65;3.83;;;15.50;99.90;;;;;;4947040;28;20042;-76
2022/11/01 03:47:23;;;;;;;7.45;3.50;;;15.40;99.90;;;;;;4965008;28;20034;-76
2022/11/01 03:50:12;;;;;;;9.05;4.00;;;15.50;99.90;;;;;;4947421;28;20582;-76
2022/11/01 03:52:37;;;;;;;7.13;3.20;;;15.40;99.90;;;;;;4960532;28;20038;-76
2022/11/01 03:55:16;;;;;;;8.60;3.22;;;15.40;99.90;;;;;;4946674;28;20034;-76
2022/11/01 03:57:49;;;;;;;13.63;4.07;;;15.40;99.90;;;;;;4979577;28;20031;-77
2022/11/01 04:00:24;;;;;;;8.23;4.00;;;15.40;99.90;;;;;;4953498;28;20043;-77
2022/11/01 04:02:51;;;;;;;8.00;3.25;;;15.50;99.90;;;;;;4955582;28;20553;-77
2022/11/01 04:05:17;;;;;;;8.27;3.80;;;15.50;99.90;;;;;;4952194;28;20045;-77
2022/11/01 04:07:42;;;;;;;9.07;3.58;;;15.40;99.90;;;;;;4950931;28;20039;-77
2022/11/01 04:10:08;;;;;;;6.03;3.35;;;15.50;99.90;;;;;;4966615;28;20102;-77
2022/11/01 04:12:34;;;;;;;5.65;2.85;;;15.50;99.90;;;;;;4963511;28;20064;-77
2022/11/01 04:20:35;;;;;;;12.30;3.42;;;15.50;99.90;;;;;;4965057;28;20410;-77
2022/11/01 04:23:01;;;;;;;5.03;2.80;;;15.60;99.90;;;;;;4951438;28;20026;-77
2022/11/01 04:25:27;;;;;;;10.27;3.50;;;15.70;99.90;;;;;;4953409;28;20039;-77
2022/11/01 04:27:55;;;;;;;5.93;3.58;;;15.70;99.90;;;;;;4981025;28;20101;-77
2022/11/01 04:30:21;;;;;;;7.95;3.47;;;15.70;99.90;;;;;;4964774;28;20508;-77
2022/11/01 04:32:47;;;;;;;7.47;3.38;;;15.70;99.90;;;;;;4966136;28;20037;-77
2022/11/01 04:35:12;;;;;;;5.68;2.70;;;15.70;99.90;;;;;;4953661;28;20023;-77
2022/11/01 04:37:38;;;;;;;15.38;3.28;;;15.70;99.90;;;;;;4981711;28;20067;-77
2022/11/01 04:40:07;;;;;;;8.98;3.40;;;15.70;99.90;;;;;;4979601;28;20843;-77
2022/11/01 04:42:36;;;;;;;4.95;2.80;;;15.80;99.90;;;;;;4967312;28;20038;-77
2022/11/01 04:45:02;;;;;;;5.97;3.05;;;15.80;99.90;;;;;;4954233;28;20031;-77
2022/11/01 04:47:28;;;;;;;6.97;3.47;;;15.70;99.90;;;;;;4952270;28;20482;-77
2022/11/01 04:49:53;;;;;;;6.80;2.10;;;15.80;99.90;;;;;;4952798;28;20130;-77
2022/11/01 04:52:19;;;;;;;5.10;2.33;;;15.80;99.90;;;;;;4984162;28;20026;-78
2022/11/01 04:54:44;;;;;;;6.97;3.30;;;15.90;99.90;;;;;;4968565;28;20759;-77
2022/11/01 04:57:22;;;;;;;6.60;2.60;;;15.90;99.90;;;;;;4964906;28;20404;-77
2022/11/01 04:59:54;;;;;;;5.13;2.63;;;15.90;99.90;;;;;;4950673;28;20557;-77
2022/11/01 05:02:20;;;;;;;6.97;3.85;;;15.90;99.90;;;;;;4979704;28;20458;-78
2022/11/01 05:04:46;;;;;;;3.92;2.03;;;15.90;99.90;;;;;;4964697;28;20042;-77
2022/11/01 05:07:12;;;;;;;8.93;2.92;;;15.90;99.90;;;;;;4967684;28;20593;-77
2022/11/01 05:09:37;;;;;;;6.88;2.55;;;16.00;99.90;;;;;;4946344;28;20846;-77
2022/11/01 05:12:03;;;;;;;7.57;2.88;;;15.90;99.90;;;;;;4965598;28;20035;-77
2022/11/01 05:14:28;;;;;;;7.88;2.88;;;16.00;99.90;;;;;;4942049;28;20038;-76
2022/11/01 05:16:55;;;;;;;5.25;2.60;;;16.00;99.90;;;;;;4966588;28;20050;-76
2022/11/01 05:19:20;;;;;;;6.00;3.08;;;16.00;99.90;;;;;;4953017;28;20082;-77
2022/11/01 05:21:46;;;;;;;8.73;3.25;;;16.00;99.90;;;;;;4963262;28;20043;-76
2022/11/01 05:24:11;;;;;;;6.28;2.50;;;15.90;99.90;;;;;;4964637;28;20061;-76
2022/11/01 05:26:37;;;;;;;6.25;2.92;;;16.00;99.90;;;;;;4963501;28;20437;-77
2022/11/01 05:29:02;;;;;;;5.15;2.53;;;16.00;99.90;;;;;;4964406;28;20509;-76
2022/11/01 05:31:28;;;;;;;8.05;2.67;;;16.10;99.90;;;;;;4956280;28;20479;-76
2022/11/01 05:33:53;;;;;;;10.15;2.97;;;16.10;99.90;;;;;;4949401;28;20070;-76
2022/11/01 05:36:19;;;;;;;7.20;2.08;;;16.10;99.90;;;;;;4966166;28;20427;-76
2022/11/01 05:38:44;;;;;;;3.97;2.03;;;16.10;99.90;;;;;;4981721;28;20427;-76
2022/11/01 05:41:10;;;;;;;6.55;2.70;;;16.10;99.90;;;;;;4965262;28;20047;-76
2022/11/01 05:43:35;;;;;;;9.32;2.78;;;16.10;99.90;;;;;;4950086;28;20595;-76
2022/11/01 05:46:05;;;;;;;8.40;1.02;;;16.10;99.90;;;;;;4979047;28;20075;-76
2022/11/01 05:48:30;;;;;;;6.30;3.00;;;16.10;99.90;;;;;;4962717;28;20502;-76
2022/11/01 05:50:56;;;;;;;5.57;2.22;;;16.10;99.90;;;;;;4980912;28;20081;-76
2022/11/01 05:53:21;;;;;;;7.65;2.38;;;16.10;99.90;;;;;;4962174;28;20058;-76
2022/11/01 05:55:47;;;;;;;8.32;2.63;;;16.10;99.90;;;;;;4966504;28;20034;-77
2022/11/01 05:58:12;;;;;;;5.75;2.58;;;16.10;99.90;;;;;;4965152;28;20096;-76
2022/11/01 06:00:38;;;;;;;3.45;2.45;;;16.10;99.90;;;;;;4951356;28;20430;-76
2022/11/01 06:03:04;;;;;;;8.13;2.15;;;16.10;99.90;;;;;;4964623;28;20565;-76
2022/11/01 06:05:30;;;;;;;7.03;2.40;;;16.10;99.90;;;;;;4960134;28;20146;-76
2022/11/01 06:07:55;;;;;;;6.78;2.50;;;16.10;99.90;;;;;;4979646;28;20089;-76
2022/11/01 06:10:21;;;;;;;6.70;2.55;;;16.10;99.90;;;;;;4961317;28;20034;-76
2022/11/01 06:12:46;;;;;;;5.22;2.42;;;16.00;99.90;;;;;;4966204;28;20085;-76
2022/11/01 06:15:12;;;;;;;4.00;2.28;;;16.00;99.90;;;;;;4952089;28;20176;-76
2022/11/01 06:17:38;;;;;;;6.18;2.75;;;16.00;99.90;;;;;;4961933;28;20118;-76
2022/11/01 06:20:04;;;;;;;3.72;1.98;;;16.00;99.90;;;;;;4958919;28;20031;-76
2022/11/01 06:22:30;;;;;;;3.92;1.50;;;16.00;99.90;;;;;;4962177;28;20027;-76
2022/11/01 06:24:55;;;;;;;5.68;1.75;;;16.00;99.90;;;;;;4979414;28;20171;-77
2022/11/01 06:27:21;;;;;;;11.80;3.30;;;15.90;99.90;;;;;;4979359;28;20557;-76
2022/11/01 06:29:46;;;;;;;7.00;2.22;;;15.90;99.90;;;;;;4962353;28;20813;-76
2022/11/01 06:32:12;;;;;;;3.00;1.85;;;16.00;99.90;;;;;;4950864;28;20682;-76
2022/11/01 06:34:37;;;;;;;7.03;1.95;;;16.10;99.90;;;;;;4945310;28;20037;-76
2022/11/01 06:37:03;;;;;;;4.78;1.58;;;16.00;99.90;;;;;;4965205;28;20053;-76
2022/11/01 06:39:28;;;;;;;1.35;1.02;;;16.00;99.90;;;;;;4977821;28;20486;-75
2022/11/01 06:41:54;;;;;;;2.88;1.52;;;16.00;99.90;;;;;;4960440;28;20035;-76
2022/11/01 06:44:23;;;;;;;1.77;0.95;;;15.90;99.90;;;;;;4931953;28;20027;-76
2022/11/01 06:46:48;;;;;;;2.05;0.95;;;15.80;99.90;;;;;;4982122;28;20421;-76
2022/11/01 06:49:14;;;;;;;4.97;1.20;;;15.80;99.90;;;;;;4958617;28;20113;-76
2022/11/01 06:51:42;;;;;;;5.22;1.70;;;15.70;99.90;;;;;;4958445;28;20030;-76
2022/11/01 06:54:07;;;;;;;1.42;0.95;;;15.80;99.90;;;;;;4945611;28;20785;-76
2022/11/01 06:56:33;;;;;;;4.40;1.10;;;15.70;99.90;;;;;;4960758;28;20089;-77
2022/11/01 06:58:59;;;;;;;2.45;0.80;;;15.70;99.90;;;;;;4975096;28;20022;-76
2022/11/01 07:01:27;;;;;;;1.48;0.60;;;15.60;99.90;;;;;;4980883;28;20050;-76
2022/11/01 07:03:52;;;;;;;2.40;0.77;;;15.60;99.90;;;;;;4961254;28;20391;-77
2022/11/01 07:06:18;;;;;;;4.82;0.70;;;15.50;99.90;;;;;;4946442;28;20037;-77
2022/11/01 07:08:44;;;;;;;1.05;0.50;;;15.50;99.90;;;;;;4948994;28;20129;-76
2022/11/01 07:11:12;;;;;;;6.68;0.50;;;15.40;99.90;;;;;;4966631;28;20479;-77
2022/11/01 07:13:37;;;;;;;3.60;0.75;;;15.30;99.90;;;;;;4962671;28;20516;-77
2022/11/01 07:16:04;;;;;;;4.20;0.80;;;15.20;99.90;;;;;;4975208;28;20062;-77
2022/11/01 07:18:33;;;;;;;2.80;1.08;;;15.20;99.90;;;;;;4959800;28;20553;-77
2022/11/01 07:21:06;;;;;;;0.88;0.70;;;15.20;99.90;;;;;;4963231;28;20062;-77
2022/11/01 07:23:31;;;;;;;2.15;0.60;;;15.10;99.90;;;;;;4960443;28;20486;-77
2022/11/01 07:25:57;;;;;;;3.00;0.82;;;15.10;99.90;;;;;;4967154;28;20077;-76
2022/11/01 07:28:23;;;;;;;1.55;0.43;;;15.00;99.90;;;;;;4963042;28;20398;-76
2022/11/01 07:30:52;;;;;;;2.80;0.60;;;14.90;99.90;;;;;;4959845;28;20030;-76
2022/11/01 07:33:17;;;;;;;0.98;0.63;;;14.90;99.90;;;;;;4950054;28;20501;-76
2022/11/01 07:35:43;;;;;;;0.55;0.35;;;14.80;99.90;;;;;;4948438;28;20030;-76
2022/11/01 07:38:09;;;;;;;1.85;0.75;;;14.80;99.90;;;;;;4975925;28;20030;-76
2022/11/01 07:40:35;;;;;;;2.05;0.65;;;14.80;99.90;;;;;;4958982;28;20063;-76
2022/11/01 07:43:01;;;;;;;1.25;0.40;;;14.70;99.90;;;;;;4963140;28;20089;-76
2022/11/01 07:45:28;;;;;;;4.78;0.45;;;14.80;99.90;;;;;;4963058;28;20499;-76
2022/11/01 07:47:58;;;;;;;0.88;0.20;;;14.80;99.90;;;;;;4950920;28;20030;-77
2022/11/01 07:50:24;;;;;;;3.47;0.47;;;14.60;99.90;;;;;;4960534;28;20034;-77
2022/11/01 07:52:59;;;;;;;8.27;0.90;;;14.60;99.90;;;;;;4951716;28;20038;-77
2022/11/01 07:55:27;;;;;;;0.70;0.38;;;14.60;99.90;;;;;;4954355;28;20035;-77
2022/11/01 07:57:52;;;;;;;0.80;0.60;;;14.60;99.90;;;;;;4963003;28;20479;-77
2022/11/01 08:00:18;;;;;;;4.10;0.68;;;14.70;99.90;;;;;;4978106;28;20026;-77
2022/11/01 08:02:43;;;;;;;2.65;0.40;;;14.70;99.90;;;;;;4961351;28;20066;-77
2022/11/01 08:05:10;;;;;;;1.63;0.77;;;14.80;99.90;;;;;;4977117;28;20070;-77
2022/11/01 08:07:37;;;;;;;1.48;0.50;;;14.80;99.90;;;;;;4951870;28;20039;-78
2022/11/01 08:10:04;;;;;;;3.95;0.65;;;15.10;99.90;;;;;;4965123;28;20027;-77
2022/11/01 08:12:30;;;;;;;3.70;0.50;;;15.10;99.90;;;;;;4949473;28;20054;-77
2022/11/01 08:14:56;;;;;;;1.27;0.22;;;15.20;99.90;;;;;;4960528;28;20040;-77
2022/11/01 08:17:21;;;;;;;3.63;1.27;;;15.40;99.90;;;;;;4963042;28;20034;-77
2022/11/01 08:19:47;;;;;;;1.75;0.70;;;15.20;99.90;;;;;;4960272;28;20058;-77
2022/11/01 08:22:12;;;;;;;0.90;0.45;;;15.40;99.90;;;;;;4960488;28;20038;-77
2022/11/01 08:24:38;;;;;;;3.30;0.47;;;15.50;99.90;;;;;;4977457;28;20035;-77
2022/11/01 08:27:03;;;;;;;1.23;0.43;;;15.50;99.90;;;;;;4962407;28;20054;-77
2022/11/01 08:29:29;;;;;;;3.10;0.60;;;15.60;99.90;;;;;;4947095;28;20395;-77
2022/11/01 08:31:54;;;;;;;1.27;0.40;;;15.80;99.90;;;;;;4944867;28;20026;-77
2022/11/01 08:34:20;;;;;;;3.70;0.32;;;15.80;99.90;;;;;;4961377;28;20033;-77
2022/11/01 08:36:46;;;;;;;2.83;0.47;;;15.60;99.90;;;;;;4960062;28;20027;-77
2022/11/01 08:39:22;;;;;;;1.48;0.35;;;15.70;99.90;;;;;;4951124;28;20078;-77
2022/11/01 08:41:48;;;;;;;4.30;0.70;;;15.90;99.90;;;;;;4926492;28;20507;-77
2022/11/01 08:44:14;;;;;;;3.95;0.50;;;15.90;99.90;;;;;;4965707;28;20361;-77
2022/11/01 08:46:42;;;;;;;3.50;0.68;;;16.00;99.90;;;;;;4976727;28;20031;-77
2022/11/01 08:49:09;;;;;;;4.85;1.10;;;16.20;99.90;;;;;;4965855;28;20026;-77
2022/11/01 08:51:35;;;;;;;2.00;0.50;;;16.30;99.90;;;;;;4966451;28;20040;-77
2022/11/01 08:54:00;;;;;;;1.20;0.38;;;16.10;99.90;;;;;;4968819;28;20026;-78
2022/11/01 08:56:26;;;;;;;1.35;0.20;;;16.20;99.90;;;;;;4966088;28;20038;-77
2022/11/01 08:58:52;;;;;;;3.60;0.90;;;16.40;99.90;;;;;;4965566;28;20089;-77
2022/11/01 09:01:18;;;;;;;7.32;1.30;;;16.50;99.90;;;;;;4963778;28;20035;-77
2022/11/01 09:03:44;;;;;;;1.67;0.50;;;16.40;99.90;;;;;;4965148;28;20038;-77
2022/11/01 09:06:09;;;;;;;11.88;1.10;;;16.10;99.90;;;;;;4962824;28;20043;-77
2022/11/01 09:08:35;;;;;;;3.30;0.38;;;16.10;99.90;;;;;;4948974;28;20039;-77
2022/11/01 09:11:00;;;;;;;1.30;0.47;;;16.60;99.90;;;;;;4959586;28;20447;-77
2022/11/01 09:13:26;;;;;;;9.05;1.10;;;16.80;99.90;;;;;;4954218;28;20853;-78
2022/11/01 09:15:53;;;;;;;2.00;0.68;;;16.60;99.90;;;;;;4952463;28;20165;-77
2022/11/01 09:18:18;;;;;;;5.03;0.68;;;16.60;99.90;;;;;;4967563;28;20118;-78
2022/11/01 09:20:44;;;;;;;7.88;1.92;;;16.40;99.90;;;;;;4981126;28;20501;-77
2022/11/01 09:23:09;;;;;;;4.75;0.80;;;16.50;99.90;;;;;;4968911;28;20032;-77
2022/11/01 09:25:35;;;;;;;9.20;1.02;;;16.90;99.50;;;;;;4951464;28;20121;-77
2022/11/01 09:28:01;;;;;;;7.57;1.40;;;16.90;99.00;;;;;;4966008;28;20022;-77
2022/11/01 09:30:28;;;;;;;8.25;1.30;;;17.10;99.30;;;;;;4952661;28;20633;-78
2022/11/01 09:32:54;;;;;;;6.22;0.77;;;17.20;98.50;;;;;;4948471;28;20054;-76
2022/11/01 09:35:19;;;;;;;13.23;1.40;;;17.00;98.90;;;;;;4945746;28;20065;-76
2022/11/01 09:37:45;;;;;;;5.13;1.10;;;17.10;98.30;;;;;;4939816;28;20066;-77
2022/11/01 09:40:13;;;;;;;8.45;1.30;;;17.20;98.40;;;;;;4980080;28;20073;-77
2022/11/01 09:42:41;;;;;;;7.80;1.20;;;17.40;98.10;;;;;;4952295;28;20031;-77
2022/11/01 09:45:15;;;;;;;3.67;0.60;;;17.20;98.20;;;;;;4947708;28;20085;-77
2022/11/01 09:47:44;;;;;;;9.27;1.27;;;17.30;98.00;;;;;;4947909;28;20030;-77
2022/11/01 09:50:13;;;;;;;11.02;1.33;;;17.40;97.70;;;;;;4953350;28;20035;-78
2022/11/01 09:52:39;;;;;;;5.07;1.35;;;17.50;97.00;;;;;;4978753;28;20045;-78
2022/11/01 09:55:13;;;;;;;10.23;1.50;;;17.70;96.70;;;;;;4961490;28;20031;-78
2022/11/01 09:57:44;;;;;;;2.08;0.47;;;17.50;97.30;;;;;;4952487;28;20494;-78
2022/11/01 10:00:19;;;;;;;10.52;1.73;;;17.70;96.40;;;;;;4946669;28;20034;-79
2022/11/01 10:02:57;;;;;;;3.25;0.70;;;17.80;95.00;;;;;;4979920;28;20053;-78
2022/11/01 10:05:37;;;;;;;3.33;1.02;;;18.10;95.50;;;;;;4961634;28;20043;-78
2022/11/01 10:08:32;;;;;;;6.30;0.90;;;18.20;94.60;;;;;;4978372;28;20097;-78
2022/11/01 10:11:01;;;;;;;8.18;1.15;;;18.40;93.80;;;;;;4976496;28;20026;-78
2022/11/01 10:13:48;;;;;;;7.93;1.30;;;18.40;93.90;;;;;;4960774;28;20070;-78
2022/11/01 10:16:36;;;;;;;9.10;1.45;;;18.30;93.90;;;;;;4978317;28;20434;-79
2022/11/01 10:19:13;;;;;;;4.68;0.60;;;18.00;94.30;;;;;;4952178;28;20513;-78
2022/11/01 10:21:53;;;;;;;3.85;0.80;;;18.20;94.30;;;;;;4946567;28;20027;-78
2022/11/01 10:24:33;;;;;;;4.85;1.02;;;18.40;94.10;;;;;;4950084;28;20121;-78
2022/11/01 10:27:04;;;;;;;11.02;1.33;;;18.60;93.40;;;;;;4963517;28;20026;-78
2022/11/01 10:29:36;;;;;;;4.88;1.05;;;18.60;93.10;;;;;;4964206;28;20048;-78
2022/11/01 10:32:01;;;;;;;1.52;0.68;;;18.60;93.40;;;;;;4966039;28;20038;-78
2022/11/01 10:34:37;;;;;;;4.07;0.80;;;18.70;93.00;;;;;;4964781;28;20026;-77
2022/11/01 10:37:26;;;;;;;4.43;0.80;;;18.60;92.80;;;;;;4963509;28;20510;-78
2022/11/01 10:39:56;;;;;;;5.50;1.10;;;18.80;92.70;;;;;;4940832;28;20391;-78
2022/11/01 10:42:21;;;;;;;13.02;1.20;;;18.80;93.00;;;;;;4936235;28;20041;-78
2022/11/01 10:44:53;;;;;;;4.88;1.00;;;18.70;92.80;;;;;;4947886;28;20430;-79
2022/11/01 10:47:20;;;;;;;3.72;0.85;;;18.90;93.60;;;;;;4947621;28;20025;-77
2022/11/01 10:49:59;;;;;;;13.60;1.15;;;19.10;92.90;;;;;;4948689;28;20070;-77
2022/11/01 10:52:27;;;;;;;8.18;1.25;;;19.10;92.60;;;;;;4936773;28;20058;-78
2022/11/01 10:54:52;;;;;;;1.73;0.40;;;19.20;92.10;;;;;;4964187;28;20101;-77
2022/11/01 10:57:29;;;;;;;5.95;1.10;;;19.30;92.20;;;;;;4967747;28;20026;-77
2022/11/01 10:59:55;;;;;;;6.18;1.02;;;19.40;92.00;;;;;;4963268;28;20030;-78
2022/11/01 11:02:25;;;;;;;7.28;1.52;;;19.50;91.40;;;;;;4967080;28;20106;-77
2022/11/01 11:04:51;;;;;;;4.55;0.85;;;19.70;91.40;;;;;;4960811;28;20052;-78
2022/11/01 11:07:16;;;;;;;4.75;0.90;;;19.50;91.00;;;;;;4961875;28;20117;-78
2022/11/01 11:09:42;;;;;;;0.77;0.35;;;19.50;90.70;;;;;;4949489;28;20076;-78
2022/11/01 11:12:18;;;;;;;1.98;0.65;;;19.60;90.70;;;;;;4962388;28;20023;-78
2022/11/01 11:14:44;;;;;;;;;;;19.60;90.50;;;;;;4945103;28;20387;-78
2022/11/01 11:17:27;;;;;;;;;;;19.60;90.50;;;;;;4961044;28;19910;-77
2022/11/01 11:19:53;;;;;;;7.32;1.10;;;19.60;90.20;;;;;;4965477;28;19913;-77
2022/11/01 11:22:22;;;;;;;5.57;0.68;;;19.60;89.80;;;;;;4945778;28;20031;-77
2022/11/01 11:24:51;;;;;;;2.70;0.60;;;19.60;90.10;;;;;;4931535;28;20581;-78
2022/11/01 11:27:30;;;;;;;9.80;1.30;;;19.80;90.20;;;;;;4918311;28;20014;-76
2022/11/01 11:29:57;;;;;;;6.63;1.05;;;19.80;90.30;;;;;;4954951;28;20030;-76
2022/11/01 11:32:34;;;;;;;6.75;0.90;;;19.50;90.70;;;;;;4962226;28;20154;-78
2022/11/01 11:35:20;;;;;;;7.50;1.13;;;19.80;91.00;;;;;;4947851;28;20030;-76
2022/11/01 11:38:00;;;;;;;8.35;1.35;;;19.60;91.20;;;;;;4956455;28;20027;-77
2022/11/01 11:40:41;;;;;;;4.80;0.85;;;19.50;90.60;;;;;;4979567;28;20375;-76
2022/11/01 11:43:30;;;;;;;4.40;0.95;;;19.90;90.10;;;;;;4960318;28;20471;-77
2022/11/01 11:46:02;;;;;;;6.38;1.08;;;19.90;90.10;;;;;;4956891;28;20114;-77
2022/11/01 11:48:27;;;;;;;7.72;1.40;;;19.60;90.50;;;;;;4962198;28;20034;-77
2022/11/01 11:51:01;;;;;;;16.15;1.35;;;20.10;89.70;;;;;;4978601;28;20042;-77
2022/11/01 11:53:28;;;;;;;5.95;1.10;;;20.20;89.40;;;;;;4950845;28;20038;-76
2022/11/01 11:55:55;;;;;;;4.13;0.90;;;20.30;87.40;;;;;;4961841;28;20117;-77
2022/11/01 11:58:38;;;;;;;4.78;0.82;;;20.50;87.50;;;;;;4952145;28;20084;-76
2022/11/01 12:01:04;;;;;;;8.40;0.95;;;20.40;87.20;;;;;;4963706;28;20034;-76
2022/11/01 12:03:44;;;;;;;5.82;0.95;;;20.50;86.50;;;;;;4944747;28;20030;-76
2022/11/01 12:06:15;;;;;;;4.55;1.20;;;20.50;86.00;;;;;;4964596;28;20430;-76
2022/11/01 12:08:46;;;;;;;5.53;1.20;;;20.10;85.80;;;;;;4947738;28;20506;-76
2022/11/01 12:11:12;;;;;;;6.53;1.20;;;20.20;86.30;;;;;;4948464;28;20034;-76
2022/11/01 12:13:40;;;;;;;7.63;2.00;;;20.00;87.90;;;;;;4946796;28;20177;-75
2022/11/01 12:16:21;;;;;;;8.88;1.00;;;19.90;88.80;;;;;;4930785;28;20383;-77
2022/11/01 12:18:52;;;;;;;4.13;1.02;;;20.10;87.90;;;;;;4942805;28;20410;-76
2022/11/01 12:21:21;;;;;;;2.85;0.65;;;19.80;88.90;;;;;;4955285;28;20368;-76
2022/11/01 12:23:48;;;;;;;5.60;1.27;;;20.20;87.90;;;;;;4947656;28;20031;-76
2022/11/01 12:26:14;;;;;;;5.97;1.00;;;20.40;85.80;;;;;;4980034;28;20069;-76
2022/11/01 12:28:42;;;;;;;5.43;0.80;;;20.20;86.40;;;;;;4945836;28;20042;-78
2022/11/01 12:31:12;;;;;;;4.30;1.25;;;20.50;85.00;;;;;;4953358;28;20039;-78
2022/11/01 12:33:44;;;;;;;6.32;0.77;;;20.60;83.60;;;;;;4950823;28;20510;-78
2022/11/01 12:36:10;;;;;;;4.82;0.98;;;20.20;84.80;;;;;;4964696;28;20109;-77
2022/11/01 12:38:42;;;;;;;9.32;1.05;;;20.10;85.10;;;;;;4965656;28;20118;-78
2022/11/01 12:41:23;;;;;;;3.95;0.93;;;20.40;84.00;;;;;;4964504;28;20041;-78
2022/11/01 12:44:12;;;;;;;7.68;1.15;;;20.40;84.80;;;;;;4942982;28;20034;-78
2022/11/01 12:46:58;;;;;;;7.60;1.83;;;20.30;84.10;;;;;;4950090;28;20037;-78
2022/11/01 12:49:51;;;;;;;8.45;1.30;;;20.30;83.70;;;;;;4968933;28;20100;-78
2022/11/01 12:52:21;;;;;;;3.85;1.05;;;20.20;85.30;;;;;;4949112;28;20034;-78
2022/11/01 12:55:23;;;;;;;6.43;1.50;;;20.70;83.70;;;;;;4949602;28;20030;-78
2022/11/01 12:57:49;;;;;;;5.07;1.75;;;20.50;83.90;;;;;;4980382;28;20117;-78
2022/11/01 13:00:15;;;;;;;5.15;0.77;;;20.50;83.30;;;;;;4955717;28;20137;-78
2022/11/01 13:02:56;;;;;;;2.28;0.98;;;20.60;83.70;;;;;;4933349;28;20029;-77
2022/11/01 13:05:26;;;;;;;4.45;1.00;;;20.60;83.60;;;;;;4968327;28;20030;-78
2022/11/01 13:08:23;;;;;;;11.10;1.33;;;20.40;82.40;;;;;;4965641;28;20046;-78